Time;durP1;ratioP1;P1;durP2;ratioP2;P2;SDS_P1;SDS_P2;PMS_P1;PMS_P2;Temp;Humidity;BMP_temperature;BMP_pressure;BME280_temperature;BME280_humidity;BME280_pressure;Samples;Min_cycle;Max_cycle;Signal;HPM_P1;HPM_P2
2022/12/22 03:26:16;;;;;;;;;;;;;;;8.97;100.00;100170.22;5086932;28;19927;-57
2022/12/22 03:28:41;;;;;;;;;;;;;;;8.98;100.00;100177.97;5082566;28;19916;-60
2022/12/22 03:31:06;;;;;;;;;;;;;;;8.99;100.00;100165.56;5087916;28;20066;-58
2022/12/22 03:33:32;;;;;;;;;;;;;;;9.00;100.00;100167.19;5080701;28;19981;-59
2022/12/22 03:35:57;;;;;;;;;;;;;;;8.99;100.00;100162.91;5087140;28;20382;-60
2022/12/22 03:38:22;;;;;;;;;;;;;;;9.00;100.00;100160.09;5088279;28;19916;-59
2022/12/22 03:40:48;;;;;;;;;;;;;;;9.00;100.00;100157.44;5081746;28;19932;-59
2022/12/22 03:48:35;;;;;;;;;;;;;;;8.98;100.00;100148.03;5088365;28;19916;-57
2022/12/22 03:51:00;;;;;;;;;;;;;;;8.97;100.00;100144.56;5085984;28;20297;-62
2022/12/22 03:53:25;;;;;;;;;;;;;;;8.97;100.00;100141.91;5087346;28;19999;-57
2022/12/22 03:55:50;;;;;;;;;;;;;;;8.91;100.00;100129.34;5088412;28;19935;-62
2022/12/22 03:58:15;;;;;;;;;;;;;;;8.95;100.00;100135.94;5080079;28;20003;-57
2022/12/22 04:00:41;;;;;;;;;;;;;;;8.93;100.00;100130.00;5086496;28;19923;-60
2022/12/22 04:03:06;;;;;;;;;;;;;;;8.94;100.00;100133.47;5089649;28;19954;-60
2022/12/22 04:05:31;;;;;;;;;;;;;;;8.90;100.00;100127.69;5083390;28;19920;-60
2022/12/22 04:07:56;;;;;;;;;;;;;;;8.92;100.00;100128.34;5086880;28;20436;-60
2022/12/22 04:13:05;;;;;;;;;;;;;;;8.92;100.00;100122.22;5087916;28;20066;-59
2022/12/22 04:15:31;;;;;;;;;;;;;;;8.91;100.00;100121.41;5084559;28;20010;-62
2022/12/22 04:17:56;;;;;;;;;;;;;;;8.89;100.00;100123.41;5087115;28;20410;-60
2022/12/22 04:20:23;;;;;;;;;;;;;;;8.90;100.00;100135.66;5085420;28;19930;-58
2022/12/22 04:22:48;;;;;;;;;;;;;;;8.89;100.00;100128.69;5091456;28;19916;-60
2022/12/22 04:25:14;;;;;;;;;;;;;;;8.86;100.00;100125.59;5085804;28;19912;-58
2022/12/22 04:27:39;;;;;;;;;;;;;;;8.82;100.00;100130.41;5085661;28;19920;-60
2022/12/22 04:30:06;;;;;;;;;;;;;;;8.81;100.00;100134.06;5086525;28;20272;-55
2022/12/22 04:32:31;;;;;;;;;;;;;;;8.74;100.00;100143.72;5100303;28;19923;-57
2022/12/22 04:34:56;;;;;;;;;;;;;;;8.66;100.00;100138.44;5087723;28;19924;-55
2022/12/22 04:37:21;;;;;;;;;;;;;;;8.55;100.00;100134.41;5092650;28;19912;-57
2022/12/22 04:39:47;;;;;;;;;;;;;;;8.47;100.00;100142.38;5085517;28;20376;-57
2022/12/22 04:42:12;;;;;;;;;;;;;;;8.42;100.00;100135.97;5085542;28;19926;-57
2022/12/22 04:44:37;;;;;;;;;;;;;;;8.41;100.00;100131.69;5083762;28;19946;-57
2022/12/22 04:47:02;;;;;;;;;;;;;;;8.39;100.00;100131.84;5085536;28;20552;-57
2022/12/22 04:49:27;;;;;;;;;;;;;;;8.42;100.00;100141.28;5083618;28;19920;-56
2022/12/22 04:51:53;;;;;;;;;;;;;;;8.44;100.00;100158.63;5084817;28;19935;-57
2022/12/22 04:54:18;;;;;;;;;;;;;;;8.45;100.00;100154.97;5090508;28;19924;-57
2022/12/22 04:56:43;;;;;;;;;;;;;;;8.45;100.00;100159.44;5091592;28;20334;-57
2022/12/22 04:59:08;;;;;;;;;;;;;;;8.47;100.00;100157.44;5089276;28;20007;-56
2022/12/22 05:01:33;;;;;;;;;;;;;;;8.47;100.00;100158.25;5089591;28;19920;-57
2022/12/22 05:03:58;;;;;;;;;;;;;;;8.48;100.00;100148.50;5085627;28;20295;-57
2022/12/22 05:06:24;;;;;;;;;;;;;;;8.49;100.00;100158.09;5092466;28;19919;-57
2022/12/22 05:08:49;;;;;;;;;;;;;;;8.48;100.00;100154.63;5088609;28;20334;-57
2022/12/22 05:11:14;;;;;;;;;;;;;;;8.50;100.00;100152.63;5087399;28;20413;-56
2022/12/22 05:13:39;;;;;;;;;;;;;;;8.53;100.00;100154.09;5091736;28;19919;-57
2022/12/22 05:16:06;;;;;;;;;;;;;;;8.55;100.00;100144.16;5074717;28;21343;-56
2022/12/22 05:18:32;;;;;;;;;;;;;;;8.55;100.00;100144.97;5082815;28;19916;-57
2022/12/22 05:20:57;;;;;;;;;;;;;;;8.58;100.00;100152.56;5088881;28;20338;-57
2022/12/22 05:23:22;;;;;;;;;;;;;;;8.59;100.00;100154.22;5073022;28;19924;-57
2022/12/22 05:25:47;;;;;;;;;;;;;;;8.60;100.00;100160.34;5086611;28;20397;-57
2022/12/22 05:28:12;;;;;;;;;;;;;;;8.60;100.00;100163.81;5087530;28;19923;-57
2022/12/22 05:30:39;;;;;;;;;;;;;;;8.61;100.00;100172.56;5080305;28;20334;-57
2022/12/22 05:33:04;;;;;;;;;;;;;;;8.60;100.00;100165.63;5084605;28;19947;-57
2022/12/22 05:35:29;;;;;;;;;;;;;;;8.60;100.00;100169.09;5092168;28;19951;-57
2022/12/22 05:37:55;;;;;;;;;;;;;;;8.60;100.00;100165.63;5092086;28;19920;-56
2022/12/22 05:40:20;;;;;;;;;;;;;;;8.59;100.00;100171.91;5091058;28;19918;-57
2022/12/22 05:42:45;;;;;;;;;;;;;;;8.58;100.00;100175.56;5090783;28;19935;-57
2022/12/22 05:45:15;;;;;;;;;;;;;;;8.53;100.00;100172.63;5089531;28;19912;-57
2022/12/22 05:47:41;;;;;;;;;;;;;;;8.54;100.00;100174.25;5088624;28;19923;-56
2022/12/22 05:50:06;;;;;;;;;;;;;;;8.53;100.00;100184.03;5088059;28;19949;-58
2022/12/22 05:52:31;;;;;;;;;;;;;;;8.55;100.00;100186.50;5094298;28;19969;-55
2022/12/22 05:54:57;;;;;;;;;;;;;;;8.55;100.00;100192.63;5089873;28;19912;-57
2022/12/22 05:57:22;;;;;;;;;;;;;;;8.55;100.00;100197.09;5082727;28;19920;-57
2022/12/22 05:59:47;;;;;;;;;;;;;;;8.55;100.00;100207.66;5085806;28;19924;-57
2022/12/22 06:02:12;;;;;;;;;;;;;;;8.54;100.00;100209.50;5084719;28;20527;-57
2022/12/22 06:04:37;;;;;;;;;;;;;;;8.53;100.00;100218.44;5086660;28;19930;-56
2022/12/22 06:07:03;;;;;;;;;;;;;;;8.51;100.00;100215.13;5088907;28;19923;-56
2022/12/22 06:09:28;;;;;;;;;;;;;;;8.51;100.00;100227.53;5080220;28;20337;-57
2022/12/22 06:11:53;;;;;;;;;;;;;;;8.50;100.00;100232.00;5088434;28;20383;-56
2022/12/22 06:14:18;;;;;;;;;;;;;;;8.50;100.00;100232.00;5087971;28;19920;-57
2022/12/22 06:16:43;;;;;;;;;;;;;;;8.51;100.00;100235.47;5084455;28;20334;-55
2022/12/22 06:19:08;;;;;;;;;;;;;;;8.51;100.00;100232.84;5086926;28;19919;-57
2022/12/22 06:21:33;;;;;;;;;;;;;;;8.51;100.00;100241.59;5084856;28;19924;-57
2022/12/22 06:23:59;;;;;;;;;;;;;;;8.53;100.00;100233.50;5099064;28;20003;-57
2022/12/22 06:26:24;;;;;;;;;;;;;;;8.53;100.00;100233.50;5093336;28;19923;-56
2022/12/22 06:28:49;;;;;;;;;;;;;;;8.55;100.00;100244.72;5085128;28;19985;-57
2022/12/22 06:31:14;;;;;;;;;;;;;;;8.55;100.00;100247.38;5078654;28;20007;-56
2022/12/22 06:33:39;;;;;;;;;;;;;;;8.57;100.00;100253.31;5085165;28;19920;-56
2022/12/22 06:36:05;;;;;;;;;;;;;;;8.57;100.00;100250.66;5083715;28;19923;-57
2022/12/22 06:38:31;;;;;;;;;;;;;;;8.59;100.00;100262.72;5089999;28;19916;-57
2022/12/22 06:40:56;;;;;;;;;;;;;;;8.59;100.00;100262.72;5088730;28;19922;-57
2022/12/22 06:43:21;;;;;;;;;;;;;;;8.59;100.00;100281.25;5087373;28;19916;-56
2022/12/22 06:45:46;;;;;;;;;;;;;;;8.61;100.00;100268.66;5089553;28;19912;-58
2022/12/22 06:48:12;;;;;;;;;;;;;;;8.60;100.00;100272.31;5086692;28;20016;-57
2022/12/22 06:50:37;;;;;;;;;;;;;;;8.61;100.00;100276.63;5085254;28;19916;-57
2022/12/22 06:53:03;;;;;;;;;;;;;;;8.61;100.00;100281.06;5087402;28;19933;-55
2022/12/22 06:55:28;;;;;;;;;;;;;;;8.62;100.00;100285.38;5086061;28;20397;-57
2022/12/22 06:57:53;;;;;;;;;;;;;;;8.61;100.00;100295.13;5082792;28;19923;-56
2022/12/22 07:00:19;;;;;;;;;;;;;;;8.61;100.00;100294.31;5081147;28;19920;-56
2022/12/22 07:02:44;;;;;;;;;;;;;;;8.59;100.00;100299.78;5084495;28;19920;-57
2022/12/22 07:05:09;;;;;;;;;;;;;;;8.60;100.00;100300.59;5089706;28;19912;-57
2022/12/22 07:07:34;;;;;;;;;;;;;;;8.58;100.00;100315.84;5081306;28;19925;-57
2022/12/22 07:10:00;;;;;;;;;;;;;;;8.58;100.00;100313.19;5087190;28;19965;-57
2022/12/22 07:12:25;;;;;;;;;;;;;;;8.54;100.00;100315.34;5082487;28;19918;-58
2022/12/22 07:14:50;;;;;;;;;;;;;;;8.49;100.00;100304.44;5079732;28;20393;-57
2022/12/22 07:17:15;;;;;;;;;;;;;;;8.52;100.00;100311.22;5082402;28;19952;-57
2022/12/22 07:19:41;;;;;;;;;;;;;;;8.50;100.00;100314.03;5085173;28;19996;-58
2022/12/22 07:22:06;;;;;;;;;;;;;;;8.48;100.00;100313.38;5086868;28;19920;-55
2022/12/22 07:24:31;;;;;;;;;;;;;;;8.45;100.00;100312.91;5085982;28;19920;-57
2022/12/22 07:26:57;;;;;;;;;;;;;;;8.38;100.00;100321.53;5086901;28;19948;-56
2022/12/22 07:29:22;;;;;;;;;;;;;;;8.32;100.00;100329.25;5085999;28;19935;-57
2022/12/22 07:31:47;;;;;;;;;;;;;;;8.24;100.00;100329.28;5083249;28;20028;-58
2022/12/22 07:34:12;;;;;;;;;;;;;;;8.23;100.00;100336.38;5091494;28;19911;-57
2022/12/22 07:36:38;;;;;;;;;;;;;;;8.23;100.00;100336.38;5090406;28;19954;-57
2022/12/22 07:39:03;;;;;;;;;;;;;;;8.25;100.00;100338.88;5087046;28;19931;-57
2022/12/22 07:44:12;;;;;;;;;;;;;;;8.27;100.00;100353.56;5080873;28;19919;-56
2022/12/22 07:46:38;;;;;;;;;;;;;;;8.27;100.00;100377.38;5084089;28;19924;-57
2022/12/22 07:51:48;;;;;;;;;;;;;;;8.27;100.00;100380.03;5083847;28;19931;-57
2022/12/22 07:54:14;;;;;;;;;;;;;;;8.28;100.00;100376.38;5081224;28;19916;-57
2022/12/22 07:56:40;;;;;;;;;;;;;;;8.27;100.00;100382.69;5081856;28;19916;-57
2022/12/22 07:59:05;;;;;;;;;;;;;;;8.28;100.00;100394.09;5087557;28;19927;-57
2022/12/22 08:01:31;;;;;;;;;;;;;;;8.29;100.00;100409.78;5083657;28;20318;-56
2022/12/22 08:03:57;;;;;;;;;;;;;;;8.29;100.00;100408.97;5080997;28;19991;-57
2022/12/22 08:06:22;;;;;;;;;;;;;;;8.30;100.00;100421.19;5081263;28;19916;-57
2022/12/22 08:08:47;;;;;;;;;;;;;;;8.30;100.00;100431.78;5087142;28;19945;-57
2022/12/22 08:11:12;;;;;;;;;;;;;;;8.28;100.00;100428.47;5084898;28;19917;-57
2022/12/22 08:13:37;;;;;;;;;;;;;;;8.25;100.00;100434.09;5082909;28;20011;-56
2022/12/22 08:16:03;;;;;;;;;;;;;;;8.24;100.00;100424.50;5085572;28;19928;-57
2022/12/22 08:18:29;;;;;;;;;;;;;;;8.24;100.00;100432.44;5086867;28;19954;-54
2022/12/22 08:20:54;;;;;;;;;;;;;;;8.22;100.00;100426.50;5086976;28;20299;-57
2022/12/22 08:23:19;;;;;;;;;;;;;;;8.20;100.00;100418.72;5087957;28;19912;-56
2022/12/22 08:25:46;;;;;;;;;;;;;;;8.20;100.00;100429.31;5084605;28;20465;-56
2022/12/22 08:28:13;;;;;;;;;;;;;;;8.18;100.00;100430.47;5086485;28;20007;-56
2022/12/22 08:30:39;;;;;;;;;;;;;;;8.17;100.00;100448.16;5080981;28;20133;-57
2022/12/22 08:33:04;;;;;;;;;;;;;;;8.15;100.00;100452.78;5095607;28;21100;-57
2022/12/22 08:35:29;;;;;;;;;;;;;;;8.12;100.00;100450.47;5090676;28;20463;-58
2022/12/22 08:37:54;;;;;;;;;;;;;;;8.09;100.00;100461.34;5088041;28;20375;-57
2022/12/22 08:40:25;;;;;;;;;;;;;;;8.06;100.00;100473.09;5083816;28;19969;-56
2022/12/22 08:42:53;;;;;;;;;;;;;;;8.01;100.00;100485.16;5082161;28;19916;-55
2022/12/22 08:45:18;;;;;;;;;;;;;;;7.97;100.00;100497.03;5082985;28;20395;-57
2022/12/22 08:47:44;;;;;;;;;;;;;;;7.94;100.00;100503.47;5083842;28;19963;-56
2022/12/22 08:50:09;;;;;;;;;;;;;;;7.91;100.00;100513.56;5080631;28;19972;-56
2022/12/22 08:52:34;;;;;;;;;;;;;;;7.84;100.00;100504.63;5080659;28;19916;-57
2022/12/22 08:55:00;;;;;;;;;;;;;;;7.80;100.00;100505.91;5083100;28;19924;-57
2022/12/22 08:57:25;;;;;;;;;;;;;;;7.73;100.00;100506.56;5084595;28;20053;-57
2022/12/22 08:59:50;;;;;;;;;;;;;;;7.70;100.00;100514.81;5085661;28;19916;-55
2022/12/22 09:02:15;;;;;;;;;;;;;;;7.67;100.00;100523.06;5087503;28;19920;-55
2022/12/22 09:04:41;;;;;;;;;;;;;;;7.62;100.00;100525.34;5089477;28;20008;-57
2022/12/22 09:07:06;;;;;;;;;;;;;;;7.57;100.00;100518.91;5091245;28;20002;-56
2022/12/22 09:09:33;;;;;;;;;;;;;;;7.50;100.00;100523.97;5080236;28;19912;-57
2022/12/22 09:11:58;;;;;;;;;;;;;;;7.45;100.00;100531.53;5087818;28;19926;-55
2022/12/22 09:14:23;;;;;;;;;;;;;;;7.40;100.00;100529.38;5085097;28;19916;-57
2022/12/22 09:16:49;;;;;;;;;;;;;;;7.35;100.00;100533.47;5090151;28;20276;-56
2022/12/22 09:19:14;;;;;;;;;;;;;;;7.38;100.00;100541.09;5081097;28;19934;-57
2022/12/22 09:21:39;;;;;;;;;;;;;;;7.37;100.00;100537.63;5090372;28;19920;-56
2022/12/22 09:24:06;;;;;;;;;;;;;;;7.39;100.00;100543.56;5082080;28;20303;-56
2022/12/22 09:26:31;;;;;;;;;;;;;;;7.41;100.00;100546.06;5084518;28;19924;-56
2022/12/22 09:28:56;;;;;;;;;;;;;;;7.38;100.00;100556.94;5084038;28;20294;-55
2022/12/22 09:31:23;;;;;;;;;;;;;;;7.40;100.00;100552.31;5079147;28;19916;-56
2022/12/22 09:33:48;;;;;;;;;;;;;;;7.44;100.00;100558.94;5085126;28;19916;-56
2022/12/22 09:36:18;;;;;;;;;;;;;;;7.50;100.00;100563.59;5093663;28;20417;-57
2022/12/22 09:38:43;;;;;;;;;;;;;;;7.56;100.00;100564.81;5086152;28;19920;-56
2022/12/22 09:41:41;;;;;;;;;;;;;;;7.61;100.00;100558.06;5077543;28;20293;-56
2022/12/22 09:44:15;;;;;;;;;;;;;;;7.68;100.00;100569.63;5064874;28;20292;-57
2022/12/22 09:46:40;;;;;;;;;;;;;;;7.74;100.00;100565.53;5080275;28;19977;-55
2022/12/22 09:49:05;;;;;;;;;;;;;;;7.80;100.00;100566.69;5085411;28;19923;-56
2022/12/22 09:51:32;;;;;;;;;;;;;;;7.84;100.00;100574.19;5084651;28;19913;-57
2022/12/22 09:53:58;;;;;;;;;;;;;;;7.85;100.00;100564.44;5080234;28;20403;-56
2022/12/22 09:56:25;;;;;;;;;;;;;;;7.87;100.00;100578.31;5084282;28;20003;-56
2022/12/22 09:58:50;;;;;;;;;;;;;;;7.89;100.00;100582.47;5086177;28;19961;-56
2022/12/22 10:01:34;;;;;;;;;;;;;;;7.96;100.00;100587.94;5085408;28;19960;-56
2022/12/22 10:04:13;;;;;;;;;;;;;;;7.95;100.00;100583.63;5085862;28;19920;-57
2022/12/22 10:06:38;;;;;;;;;;;;;;;7.94;100.00;100580.16;5083098;28;20591;-55
2022/12/22 10:09:13;;;;;;;;;;;;;;;7.96;100.00;100583.47;5082607;28;19920;-55
2022/12/22 10:11:38;;;;;;;;;;;;;;;7.98;100.00;100589.41;5078018;28;19920;-56
2022/12/22 10:14:03;;;;;;;;;;;;;;;7.98;100.00;100596.53;5082585;28;19916;-57
2022/12/22 10:16:28;;;;;;;;;;;;;;;7.96;100.00;100598.50;5083427;28;20007;-56
2022/12/22 10:18:58;;;;;;;;;;;;;;;7.96;100.00;100591.41;5086578;28;20385;-58
2022/12/22 10:21:23;;;;;;;;;;;;;;;7.98;100.00;100584.13;5078492;28;19928;-56
2022/12/22 10:23:49;;;;;;;;;;;;;;;8.00;100.00;100598.03;5085480;28;19920;-57
2022/12/22 10:26:40;;;;;;;;;;;;;;;8.01;100.00;100601.50;5083434;28;19916;-56
2022/12/22 10:29:09;;;;;;;;;;;;;;;8.01;100.00;100609.44;5075817;28;20399;-56
2022/12/22 10:31:35;;;;;;;;;;;;;;;8.01;100.00;100606.78;5084471;28;20011;-57
2022/12/22 10:34:15;;;;;;;;;;;;;;;8.03;100.00;100607.44;5077569;28;19970;-56
2022/12/22 10:36:45;;;;;;;;;;;;;;;8.05;100.00;100605.47;5088600;28;19916;-56
2022/12/22 10:39:12;;;;;;;;;;;;;;;8.03;100.00;100610.91;5078157;28;19922;-56
2022/12/22 10:41:42;;;;;;;;;;;;;;;7.98;100.00;100605.28;5086862;28;19920;-55
2022/12/22 10:44:18;;;;;;;;;;;;;;;7.97;100.00;100608.91;5088296;28;19917;-55
2022/12/22 10:46:50;;;;;;;;;;;;;;;8.00;100.00;100613.88;5080315;28;19920;-56
2022/12/22 10:49:17;;;;;;;;;;;;;;;8.02;100.00;100608.44;5085230;28;19924;-56
2022/12/22 10:51:44;;;;;;;;;;;;;;;8.02;100.00;100603.16;5081911;28;19916;-56
2022/12/22 10:54:22;;;;;;;;;;;;;;;7.99;100.00;100606.94;5081891;28;20015;-55
2022/12/22 10:56:57;;;;;;;;;;;;;;;7.99;100.00;100600.81;5087273;28;19932;-56
2022/12/22 10:59:22;;;;;;;;;;;;;;;7.99;100.00;100616.69;5083782;28;19924;-55
2022/12/22 11:01:48;;;;;;;;;;;;;;;7.96;100.00;100622.31;5078394;28;19917;-56
2022/12/22 11:04:31;;;;;;;;;;;;;;;7.96;100.00;100624.94;5085035;28;20019;-57
2022/12/22 11:06:57;;;;;;;;;;;;;;;7.99;100.00;100625.47;5087576;28;19920;-57
2022/12/22 11:09:24;;;;;;;;;;;;;;;7.99;100.00;100624.63;5087812;28;19923;-57
2022/12/22 11:11:55;;;;;;;;;;;;;;;7.93;100.00;100630.56;5086278;28;19999;-56
2022/12/22 11:14:39;;;;;;;;;;;;;;;7.88;100.00;100630.22;5087147;28;20422;-57
2022/12/22 11:17:11;;;;;;;;;;;;;;;7.86;100.00;100646.22;5088005;28;19924;-56
2022/12/22 11:19:54;;;;;;;;;;;;;;;7.87;100.00;100639.97;5087557;28;20379;-55
2022/12/22 11:22:26;;;;;;;;;;;;;;;7.90;100.00;100641.44;5084501;28;20032;-57
2022/12/22 11:25:04;;;;;;;;;;;;;;;7.96;100.00;100640.81;5076510;28;19939;-56
2022/12/22 11:27:41;;;;;;;;;;;;;;;7.94;100.00;100643.63;5081078;28;20391;-56
2022/12/22 11:30:20;;;;;;;;;;;;;;;7.96;100.00;100649.56;5083036;28;19931;-57
2022/12/22 11:33:04;;;;;;;;;;;;;;;8.05;100.00;100645.97;5078271;28;19920;-56
2022/12/22 11:35:48;;;;;;;;;;;;;;;8.19;100.00;100646.38;5080260;28;19925;-56
2022/12/22 11:38:30;;;;;;;;;;;;;;;8.28;100.00;100642.75;5082949;28;19924;-57
2022/12/22 11:41:08;;;;;;;;;;;;;;;8.24;100.00;100658.13;5073275;28;20020;-56
2022/12/22 11:43:49;;;;;;;;;;;;;;;8.21;100.00;100660.25;5084713;28;20003;-57
2022/12/22 11:46:19;;;;;;;;;;;;;;;8.25;100.00;100662.44;5076400;28;19916;-57
2022/12/22 11:49:04;;;;;;;;;;;;;;;8.26;100.00;100655.31;5081157;28;19926;-55
2022/12/22 11:51:48;;;;;;;;;;;;;;;8.20;100.00;100663.91;5083506;28;19924;-57
2022/12/22 11:54:16;;;;;;;;;;;;;;;8.18;100.00;100656.13;5085571;28;19928;-55
2022/12/22 11:56:43;;;;;;;;;;;;;;;8.15;100.00;100655.63;5077635;28;20003;-58
2022/12/22 11:59:15;;;;;;;;;;;;;;;8.18;100.00;100666.69;5080955;28;20429;-57
2022/12/22 12:01:40;;;;;;;;;;;;;;;8.16;100.00;100660.75;5086285;28;19924;-57
2022/12/22 12:04:15;;;;;;;;;;;;;;;8.16;100.00;100655.47;5082214;28;19924;-57
2022/12/22 12:06:50;;;;;;;;;;;;;;;8.14;100.00;100649.50;5080102;28;20385;-56
2022/12/22 12:09:18;;;;;;;;;;;;;;;8.13;100.00;100653.13;5081501;28;19916;-57
2022/12/22 12:11:54;;;;;;;;;;;;;;;8.12;100.00;100646.19;5078339;28;19926;-55
2022/12/22 12:14:33;;;;;;;;;;;;;;;8.12;100.00;100648.84;5079297;28;20357;-56
2022/12/22 12:17:07;;;;;;;;;;;;;;;8.13;100.00;100650.50;5076671;28;19927;-57
2022/12/22 12:19:56;;;;;;;;;;;;;;;8.13;100.00;100645.19;5077706;28;20485;-57
2022/12/22 12:22:24;;;;;;;;;;;;;;;8.14;100.00;100630.97;5078246;28;20007;-57
2022/12/22 12:25:00;;;;;;;;;;;;;;;8.17;100.00;100621.91;5079042;28;19934;-56
2022/12/22 12:27:51;;;;;;;;;;;;;;;8.23;100.00;100619.44;5078363;28;19920;-55
2022/12/22 12:30:17;;;;;;;;;;;;;;;8.33;100.00;100611.34;5079976;28;19931;-57
2022/12/22 12:32:59;;;;;;;;;;;;;;;8.37;100.00;100615.34;5082963;28;19916;-57
2022/12/22 12:35:34;;;;;;;;;;;;;;;8.53;100.00;100614.56;5083368;28;20533;-56
2022/12/22 12:38:17;;;;;;;;;;;;;;;8.68;100.00;100602.38;5083486;28;19927;-56
2022/12/22 12:40:48;;;;;;;;;;;;;;;8.70;100.00;100600.38;5083594;28;19977;-57
2022/12/22 12:43:14;;;;;;;;;;;;;;;8.69;100.00;100601.38;5082880;28;19920;-57
2022/12/22 12:45:44;;;;;;;;;;;;;;;8.69;100.00;100610.16;5083955;28;20520;-57
2022/12/22 12:48:19;;;;;;;;;;;;;;;8.67;99.90;100601.53;5086235;28;20154;-56
2022/12/22 12:50:44;;;;;;;;;;;;;;;8.63;99.60;100602.84;5084391;28;19939;-56
2022/12/22 12:53:10;;;;;;;;;;;;;;;8.60;99.20;100604.97;5090985;28;20283;-56
2022/12/22 12:55:37;;;;;;;;;;;;;;;8.56;99.21;100601.00;5088019;28;19916;-56
2022/12/22 12:58:03;;;;;;;;;;;;;;;8.54;99.47;100605.63;5087247;28;19916;-55
2022/12/22 13:00:31;;;;;;;;;;;;;;;8.49;99.19;100613.25;5081444;28;20294;-56
2022/12/22 13:03:01;;;;;;;;;;;;;;;8.47;98.53;100608.13;5080683;28;19924;-55
2022/12/22 13:05:31;;;;;;;;;;;;;;;8.46;98.99;100610.94;5081983;28;19916;-57
2022/12/22 13:08:05;;;;;;;;;;;;;;;8.44;98.85;100600.50;5088745;28;19924;-57
2022/12/22 13:10:30;;;;;;;;;;;;;;;8.47;99.46;100596.72;5086939;28;19920;-57
2022/12/22 13:12:57;;;;;;;;;;;;;;;8.48;99.59;100601.00;5079837;28;20049;-55
2022/12/22 13:15:25;;;;;;;;;;;;;;;8.50;99.39;100591.09;5091128;28;19916;-56
2022/12/22 13:17:50;;;;;;;;;;;;;;;8.60;99.82;100589.09;5082826;28;20005;-57
2022/12/22 13:20:20;;;;;;;;;;;;;;;8.66;99.25;100591.91;5086792;28;19962;-56
2022/12/22 13:22:50;;;;;;;;;;;;;;;8.67;99.10;100598.03;5086961;28;19920;-56
2022/12/22 13:25:15;;;;;;;;;;;;;;;8.63;98.83;100604.66;5079771;28;20315;-57
2022/12/22 13:27:40;;;;;;;;;;;;;;;8.59;98.18;100617.38;5086335;28;19916;-56
2022/12/22 13:30:11;;;;;;;;;;;;;;;8.57;97.80;100605.31;5085595;28;20399;-56
2022/12/22 13:32:39;;;;;;;;;;;;;;;8.53;98.00;100604.81;5081957;28;19912;-56
2022/12/22 13:35:21;;;;;;;;;;;;;;;8.52;98.27;100602.34;5088952;28;20039;-55
2022/12/22 13:37:47;;;;;;;;;;;;;;;8.48;98.23;100596.53;5082688;28;20003;-54
2022/12/22 13:40:23;;;;;;;;;;;;;;;8.48;98.19;100593.06;5088337;28;19916;-56
2022/12/22 13:43:03;;;;;;;;;;;;;;;8.48;98.34;100590.41;5084730;28;19924;-56
2022/12/22 13:45:38;;;;;;;;;;;;;;;8.47;98.52;100586.13;5083961;28;20073;-54
2022/12/22 13:48:06;;;;;;;;;;;;;;;8.47;98.38;100578.19;5083082;28;19931;-55
2022/12/22 13:50:33;;;;;;;;;;;;;;;8.47;98.31;100576.38;5088888;28;19912;-55
2022/12/22 13:53:00;;;;;;;;;;;;;;;8.49;98.59;100576.19;5083313;28;19941;-56
2022/12/22 13:55:26;;;;;;;;;;;;;;;8.49;98.58;100576.19;5091650;28;19916;-56
2022/12/22 13:57:52;;;;;;;;;;;;;;;8.47;98.40;100583.47;5087057;28;20392;-56
2022/12/22 14:00:19;;;;;;;;;;;;;;;8.47;98.46;100573.72;5090562;28;19912;-56
2022/12/22 14:02:44;;;;;;;;;;;;;;;8.47;98.53;100567.59;5078422;28;20100;-56
2022/12/22 14:05:11;;;;;;;;;;;;;;;8.48;98.49;100566.59;5088132;28;20613;-56
2022/12/22 14:07:37;;;;;;;;;;;;;;;8.48;98.51;100558.66;5088410;28;19956;-57
2022/12/22 14:10:02;;;;;;;;;;;;;;;8.48;98.16;100562.13;5087836;28;20411;-57
2022/12/22 14:12:29;;;;;;;;;;;;;;;8.49;98.09;100560.31;5085390;28;19998;-56
2022/12/22 14:14:55;;;;;;;;;;;;;;;8.47;98.40;100555.19;5088937;28;19966;-57
2022/12/22 14:17:22;;;;;;;;;;;;;;;8.48;98.83;100556.03;5084990;28;20288;-56
2022/12/22 14:19:55;;;;;;;;;;;;;;;8.46;98.68;100558.00;5089658;28;19912;-57
2022/12/22 14:22:28;;;;;;;;;;;;;;;8.44;98.67;100550.22;5089389;28;20371;-56
2022/12/22 14:24:58;;;;;;;;;;;;;;;8.43;98.95;100540.63;5085384;28;19923;-56
2022/12/22 14:27:42;;;;;;;;;;;;;;;8.42;98.78;100538.97;5089410;28;19962;-56
2022/12/22 14:30:15;;;;;;;;;;;;;;;8.41;98.86;100539.16;5088673;28;19916;-56
2022/12/22 14:32:42;;;;;;;;;;;;;;;8.37;99.14;100528.88;5099124;28;19922;-57
2022/12/22 14:35:33;;;;;;;;;;;;;;;8.34;99.11;100526.56;5094413;28;20398;-57
2022/12/22 14:38:01;;;;;;;;;;;;;;;8.29;99.27;100528.84;5087106;28;19915;-57
2022/12/22 14:40:29;;;;;;;;;;;;;;;8.27;99.67;100528.16;5079173;28;19923;-57
2022/12/22 14:42:54;;;;;;;;;;;;;;;8.23;99.94;100524.19;5080354;28;19924;-58
2022/12/22 14:45:19;;;;;;;;;;;;;;;8.23;99.83;100520.72;5088745;28;20119;-56
2022/12/22 14:47:44;;;;;;;;;;;;;;;8.21;99.93;100523.53;5080101;28;19931;-60
2022/12/22 14:50:13;;;;;;;;;;;;;;;8.21;100.00;100512.13;5078707;28;19951;-56
2022/12/22 14:52:52;;;;;;;;;;;;;;;8.22;100.00;100508.50;5084184;28;19967;-59
2022/12/22 14:55:22;;;;;;;;;;;;;;;8.22;100.00;100509.31;5083014;28;20058;-56
2022/12/22 14:57:51;;;;;;;;;;;;;;;8.23;100.00;100507.50;5084269;28;19928;-60
2022/12/22 15:00:22;;;;;;;;;;;;;;;8.25;100.00;100509.00;5081127;28;19924;-58
2022/12/22 15:02:49;;;;;;;;;;;;;;;8.24;100.00;100507.34;5084161;28;19921;-57
2022/12/22 15:05:36;;;;;;;;;;;;;;;8.23;100.00;100513.63;5094803;28;19913;-57
2022/12/22 15:08:01;;;;;;;;;;;;;;;8.22;100.00;100511.13;5082937;28;19915;-59
2022/12/22 15:10:32;;;;;;;;;;;;;;;8.23;100.00;100507.50;5085248;28;19999;-59
2022/12/22 15:12:58;;;;;;;;;;;;;;;8.19;100.00;100508.81;5081842;28;20327;-58
2022/12/22 15:15:24;;;;;;;;;;;;;;;8.17;100.00;100503.69;5080861;28;19923;-56
2022/12/22 15:17:50;;;;;;;;;;;;;;;8.18;100.00;100496.59;5086180;28;19924;-58
2022/12/22 15:20:23;;;;;;;;;;;;;;;8.16;100.00;100494.09;5086882;28;19966;-59
2022/12/22 15:22:49;;;;;;;;;;;;;;;8.15;100.00;100487.16;5099031;28;19916;-58
2022/12/22 15:25:15;;;;;;;;;;;;;;;8.17;100.00;100485.19;5074131;28;20291;-59
2022/12/22 15:27:40;;;;;;;;;;;;;;;8.17;100.00;100487.00;5083405;28;19919;-58
2022/12/22 15:30:06;;;;;;;;;;;;;;;8.16;100.00;100480.88;5081288;28;19961;-56
2022/12/22 15:32:31;;;;;;;;;;;;;;;8.17;100.00;100487.81;5080308;28;19916;-57
2022/12/22 15:34:57;;;;;;;;;;;;;;;8.18;100.00;100475.44;5085867;28;19939;-59
2022/12/22 15:37:22;;;;;;;;;;;;;;;8.18;100.00;100473.63;5086357;28;19931;-58
2022/12/22 15:39:47;;;;;;;;;;;;;;;8.19;100.00;100472.63;5078126;28;19986;-59
2022/12/22 15:42:12;;;;;;;;;;;;;;;8.21;100.00;100472.47;5086996;28;19943;-59
2022/12/22 15:44:38;;;;;;;;;;;;;;;8.19;100.00;100467.34;5089575;28;20436;-59
2022/12/22 15:47:03;;;;;;;;;;;;;;;8.19;100.00;100464.69;5080319;28;19920;-58
2022/12/22 15:49:29;;;;;;;;;;;;;;;8.20;100.00;100458.41;5085859;28;19922;-57
2022/12/22 15:51:55;;;;;;;;;;;;;;;8.20;100.00;100458.41;5079081;28;20508;-58
2022/12/22 15:54:21;;;;;;;;;;;;;;;8.21;100.00;100456.59;5079095;28;20011;-57
2022/12/22 15:56:49;;;;;;;;;;;;;;;8.19;100.00;100451.47;5087863;28;19990;-59
2022/12/22 15:59:27;;;;;;;;;;;;;;;8.18;100.00;100448.97;5081218;28;20337;-59
2022/12/22 16:01:53;;;;;;;;;;;;;;;8.17;100.00;100436.75;5082686;28;20452;-59
2022/12/22 16:04:18;;;;;;;;;;;;;;;8.18;100.00;100435.75;5077781;28;20413;-61
2022/12/22 16:06:44;;;;;;;;;;;;;;;8.16;100.00;100433.28;5085583;28;20387;-60
2022/12/22 16:09:17;;;;;;;;;;;;;;;8.15;100.00;100428.97;5084863;28;19920;-59
2022/12/22 16:11:42;;;;;;;;;;;;;;;8.14;100.00;100427.31;5076529;28;20026;-59
2022/12/22 16:14:09;;;;;;;;;;;;;;;8.13;100.00;100425.69;5080688;28;19924;-59
2022/12/22 16:16:34;;;;;;;;;;;;;;;8.12;100.00;100413.44;5076801;28;19984;-59
2022/12/22 16:18:59;;;;;;;;;;;;;;;8.05;100.00;100412.44;5083994;28;20018;-62
2022/12/22 16:21:28;;;;;;;;;;;;;;;8.05;100.00;100412.44;5082049;28;19916;-60